Time;durP1;ratioP1;P1;durP2;ratioP2;P2;SDS_P1;SDS_P2;PMS_P1;PMS_P2;Temp;Humidity;BMP_temperature;BMP_pressure;BME280_temperature;BME280_humidity;BME280_pressure;Samples;Min_cycle;Max_cycle;Signal;HPM_P1;HPM_P2
2022/01/30 00:00:46;;;;;;;13.95;3.97;;;;;;;;;;5134269;27;20042;-65
2022/01/30 00:03:12;;;;;;;18.80;4.45;;;;;;;;;;5133731;27;20043;-65
2022/01/30 00:05:39;;;;;;;12.63;3.30;;;;;;;;;;5134168;27;20035;-64
2022/01/30 00:08:05;;;;;;;15.13;3.85;;;;;;;;;;5134116;27;20228;-65
2022/01/30 00:10:37;;;;;;;14.95;3.80;;;;;;;;;;5115738;27;20050;-65
2022/01/30 00:13:05;;;;;;;15.38;3.05;;;;;;;;;;5133525;27;20043;-65
2022/01/30 00:21:30;;;;;;;18.20;3.95;;;;;;;;;;5133499;27;20039;-64
2022/01/30 00:26:28;;;;;;;13.65;2.97;;;;;;;;;;5133669;27;19915;-65
2022/01/30 00:28:54;;;;;;;11.15;3.35;;;;;;;;;;5133616;27;20047;-64
2022/01/30 00:31:21;;;;;;;17.63;3.45;;;;;;;;;;5133013;27;20411;-65
2022/01/30 00:33:48;;;;;;;21.27;3.80;;;;;;;;;;5133270;27;20103;-65
2022/01/30 00:36:14;;;;;;;16.63;3.60;;;;;;;;;;5133139;27;20042;-65
2022/01/30 00:38:41;;;;;;;16.65;3.08;;;;;;;;;;5133735;27;20035;-65
2022/01/30 00:41:08;;;;;;;13.77;3.78;;;;;;;;;;5133498;27;20490;-66
2022/01/30 00:43:34;;;;;;;16.45;3.13;;;;;;;;;;5133390;27;20071;-65
2022/01/30 00:46:01;;;;;;;24.48;4.97;;;;;;;;;;5133148;27;20042;-65
2022/01/30 00:48:27;;;;;;;15.45;3.17;;;;;;;;;;5115330;27;20051;-66
2022/01/30 00:50:54;;;;;;;16.30;3.25;;;;;;;;;;5133687;27;20387;-66
2022/01/30 00:53:20;;;;;;;19.00;3.50;;;;;;;;;;5115170;27;20043;-65
2022/01/30 00:55:46;;;;;;;16.23;3.45;;;;;;;;;;5133261;27;20114;-65
2022/01/30 00:58:13;;;;;;;12.75;2.85;;;;;;;;;;5133616;27;20425;-65
2022/01/30 01:00:40;;;;;;;14.57;3.17;;;;;;;;;;5127648;27;20035;-65
2022/01/30 01:03:07;;;;;;;19.25;3.63;;;;;;;;;;5133431;27;20476;-65
2022/01/30 01:05:34;;;;;;;19.75;3.83;;;;;;;;;;5117828;28;20043;-65
2022/01/30 01:08:09;;;;;;;10.43;2.60;;;;;;;;;;5113030;28;20551;-65
2022/01/30 01:10:50;;;;;;;15.07;3.25;;;;;;;;;;5116409;28;20051;-65
2022/01/30 01:13:52;;;;;;;14.43;3.67;;;;;;;;;;5081839;28;20122;-65
2022/01/30 01:26:46;;;;;;;13.45;3.63;;;;;;;;;;5113527;28;20104;-65
2022/01/30 01:29:12;;;;;;;16.23;3.13;;;;;;;;;;5116714;28;20084;-65
2022/01/30 01:31:38;;;;;;;23.63;5.18;;;;;;;;;;5116243;28;20046;-64
2022/01/30 01:37:00;;;;;;;15.07;3.15;;;;;;;;;;5102308;28;20100;-65
2022/01/30 01:39:26;;;;;;;16.42;3.47;;;;;;;;;;5116087;28;20123;-65
2022/01/30 01:41:52;;;;;;;16.13;4.18;;;;;;;;;;5115738;28;20502;-65
2022/01/30 01:44:20;;;;;;;16.30;3.17;;;;;;;;;;5115757;28;20071;-65
2022/01/30 01:46:48;;;;;;;17.60;3.63;;;;;;;;;;5115962;28;20044;-65
2022/01/30 01:49:20;;;;;;;18.35;4.22;;;;;;;;;;5097004;28;20044;-65
2022/01/30 01:52:01;;;;;;;18.83;4.30;;;;;;;;;;5115681;28;20384;-65
2022/01/30 01:54:27;;;;;;;17.88;3.83;;;;;;;;;;5098247;28;20036;-64
2022/01/30 01:56:53;;;;;;;21.33;4.28;;;;;;;;;;5133660;27;20039;-65
2022/01/30 01:59:19;;;;;;;17.38;3.85;;;;;;;;;;5117976;27;20499;-65
2022/01/30 02:01:50;;;;;;;16.45;3.92;;;;;;;;;;5135921;27;20035;-66
2022/01/30 02:04:16;;;;;;;19.83;3.90;;;;;;;;;;5119505;27;20039;-65
2022/01/30 02:06:43;;;;;;;11.77;3.00;;;;;;;;;;5151604;22;20484;-63
2022/01/30 02:09:12;;;;;;;16.98;3.50;;;;;;;;;;5134674;22;20043;-63
2022/01/30 02:11:43;;;;;;;21.20;3.90;;;;;;;;;;5136907;27;20246;-63
2022/01/30 02:27:44;;;;;;;16.10;3.85;;;;;;;;;;5135864;27;20051;-64
2022/01/30 02:30:16;;;;;;;22.20;4.28;;;;;;;;;;5135584;27;20539;-63
2022/01/30 02:32:42;;;;;;;16.67;3.42;;;;;;;;;;5116969;27;20077;-63
2022/01/30 02:35:09;;;;;;;16.27;3.80;;;;;;;;;;5135201;27;20035;-63
2022/01/30 02:37:35;;;;;;;24.55;4.43;;;;;;;;;;5135025;27;20039;-64
2022/01/30 02:40:04;;;;;;;19.83;3.83;;;;;;;;;;5135010;27;20092;-64
2022/01/30 02:42:33;;;;;;;15.90;3.95;;;;;;;;;;5134751;27;20035;-66
2022/01/30 02:45:03;;;;;;;16.33;3.70;;;;;;;;;;5135286;27;20248;-66
2022/01/30 02:54:56;;;;;;;16.38;4.25;;;;;;;;;;5092702;28;20048;-64
2022/01/30 02:57:22;;;;;;;23.25;3.85;;;;;;;;;;5094598;28;20040;-63
2022/01/30 02:59:50;;;;;;;17.00;4.70;;;;;;;;;;5094398;28;20044;-63
2022/01/30 03:02:16;;;;;;;26.38;4.80;;;;;;;;;;5093423;28;20032;-63
2022/01/30 03:04:42;;;;;;;17.63;4.25;;;;;;;;;;5094089;28;20044;-64
2022/01/30 03:07:08;;;;;;;22.10;5.07;;;;;;;;;;5093976;28;20071;-64
2022/01/30 03:09:35;;;;;;;17.80;5.07;;;;;;;;;;5094035;28;20040;-64
2022/01/30 03:12:02;;;;;;;19.75;4.68;;;;;;;;;;5093582;28;20118;-64
2022/01/30 03:14:28;;;;;;;20.95;4.10;;;;;;;;;;5094016;28;20404;-65
2022/01/30 03:19:22;;;;;;;18.67;4.18;;;;;;;;;;5092958;28;20040;-65
2022/01/30 03:21:49;;;;;;;25.55;5.65;;;;;;;;;;5092442;28;20051;-65
2022/01/30 03:24:15;;;;;;;20.15;3.78;;;;;;;;;;5093328;28;20040;-65
2022/01/30 03:26:41;;;;;;;18.77;3.97;;;;;;;;;;5093340;28;20036;-65
2022/01/30 03:29:08;;;;;;;17.05;3.97;;;;;;;;;;5093568;28;20054;-65
2022/01/30 03:31:44;;;;;;;18.40;4.07;;;;;;;;;;5093134;28;20044;-65
2022/01/30 03:34:10;;;;;;;18.10;3.40;;;;;;;;;;5092736;28;20118;-65
2022/01/30 03:36:37;;;;;;;16.15;3.55;;;;;;;;;;5075260;28;20047;-64
2022/01/30 03:39:04;;;;;;;13.20;3.20;;;;;;;;;;5093006;28;20032;-65
2022/01/30 03:41:30;;;;;;;22.33;4.63;;;;;;;;;;5092978;28;20043;-64
2022/01/30 03:43:56;;;;;;;15.00;4.05;;;;;;;;;;5092788;28;20473;-64
2022/01/30 03:46:23;;;;;;;22.67;3.75;;;;;;;;;;5074823;28;20388;-64
2022/01/30 03:48:50;;;;;;;17.52;4.20;;;;;;;;;;5093148;28;20051;-64
2022/01/30 03:51:16;;;;;;;17.95;3.80;;;;;;;;;;5093326;28;20074;-64
2022/01/30 03:53:43;;;;;;;20.40;4.20;;;;;;;;;;5093719;28;20501;-65
2022/01/30 03:56:10;;;;;;;20.27;3.90;;;;;;;;;;5075403;28;20044;-64
2022/01/30 03:58:36;;;;;;;19.58;5.10;;;;;;;;;;5091664;28;20070;-64
2022/01/30 04:01:02;;;;;;;19.38;4.25;;;;;;;;;;5074893;28;20400;-64
2022/01/30 04:03:28;;;;;;;18.63;4.05;;;;;;;;;;5093598;28;20044;-64
2022/01/30 04:05:54;;;;;;;18.77;4.55;;;;;;;;;;5093982;28;20050;-66
2022/01/30 04:08:21;;;;;;;24.17;5.35;;;;;;;;;;5092289;28;20050;-65
2022/01/30 04:10:47;;;;;;;23.65;5.07;;;;;;;;;;5092431;28;20416;-64
2022/01/30 04:13:13;;;;;;;23.58;4.55;;;;;;;;;;5091897;28;20065;-64
2022/01/30 04:15:39;;;;;;;26.58;5.25;;;;;;;;;;5092206;28;20096;-64
2022/01/30 04:18:06;;;;;;;30.60;5.38;;;;;;;;;;5092445;28;20071;-65
2022/01/30 04:20:32;;;;;;;17.92;4.60;;;;;;;;;;5093090;28;20584;-67
2022/01/30 04:22:58;;;;;;;25.48;5.63;;;;;;;;;;5074292;28;20485;-67
2022/01/30 04:25:27;;;;;;;17.85;5.03;;;;;;;;;;5092234;28;20177;-66
2022/01/30 04:27:53;;;;;;;24.77;5.30;;;;;;;;;;5098100;28;20051;-65
2022/01/30 04:30:21;;;;;;;31.80;5.60;;;;;;;;;;5103163;28;20042;-65
2022/01/30 04:32:47;;;;;;;25.52;7.57;;;;;;;;;;5085994;28;20055;-66
2022/01/30 04:35:20;;;;;;;27.65;6.50;;;;;;;;;;5098997;28;20036;-65
2022/01/30 04:38:00;;;;;;;31.95;6.30;;;;;;;;;;5092501;28;20062;-65
2022/01/30 04:54:39;;;;;;;21.85;5.22;;;;;;;;;;5092782;28;20040;-65
2022/01/30 04:59:46;;;;;;;25.50;5.65;;;;;;;;;;5116600;22;20138;-64
2022/01/30 05:05:04;;;;;;;27.33;5.30;;;;;;;;;;5113912;28;20085;-67
2022/01/30 05:07:33;;;;;;;20.20;4.80;;;;;;;;;;5113571;28;20104;-65
2022/01/30 05:09:59;;;;;;;22.55;5.22;;;;;;;;;;5112839;28;20050;-66
2022/01/30 05:12:32;;;;;;;28.85;5.07;;;;;;;;;;5112387;28;20039;-63
2022/01/30 05:14:58;;;;;;;21.77;5.80;;;;;;;;;;5112732;28;20152;-63
2022/01/30 05:17:24;;;;;;;24.48;5.65;;;;;;;;;;5112513;28;20064;-63
2022/01/30 05:19:50;;;;;;;30.83;6.03;;;;;;;;;;5112686;28;20047;-63
2022/01/30 05:22:16;;;;;;;26.35;5.85;;;;;;;;;;5112176;28;20051;-64
2022/01/30 05:24:43;;;;;;;26.08;6.22;;;;;;;;;;5112746;28;20038;-64
2022/01/30 05:27:09;;;;;;;23.25;5.47;;;;;;;;;;5112148;28;20100;-65
2022/01/30 05:29:36;;;;;;;27.77;7.75;;;;;;;;;;5112237;28;20044;-65
2022/01/30 05:32:02;;;;;;;27.90;6.97;;;;;;;;;;5112266;28;20392;-64
2022/01/30 05:34:30;;;;;;;29.40;6.65;;;;;;;;;;5112550;28;20043;-65
2022/01/30 05:36:56;;;;;;;30.27;5.97;;;;;;;;;;5112523;28;20079;-65
2022/01/30 05:39:23;;;;;;;34.63;7.47;;;;;;;;;;5112684;28;20463;-65
2022/01/30 05:47:14;;;;;;;30.02;7.43;;;;;;;;;;5134120;28;20201;-65
2022/01/30 05:49:40;;;;;;;32.80;6.60;;;;;;;;;;5114613;22;20059;-65
2022/01/30 05:52:07;;;;;;;34.65;7.20;;;;;;;;;;5092492;28;20066;-67
2022/01/30 05:54:33;;;;;;;27.50;6.43;;;;;;;;;;5092160;28;20181;-65
2022/01/30 05:57:01;;;;;;;35.50;7.10;;;;;;;;;;5075931;28;20048;-64
2022/01/30 05:59:29;;;;;;;26.08;6.57;;;;;;;;;;5078351;28;20089;-66
2022/01/30 06:01:55;;;;;;;23.38;6.70;;;;;;;;;;5095529;28;20079;-64
2022/01/30 06:04:21;;;;;;;29.25;6.50;;;;;;;;;;5096421;28;20032;-64
2022/01/30 06:06:51;;;;;;;28.85;6.95;;;;;;;;;;5116004;28;20035;-63
2022/01/30 06:11:43;;;;;;;28.92;7.40;;;;;;;;;;5115190;28;20537;-64
2022/01/30 06:14:09;;;;;;;35.03;7.53;;;;;;;;;;5115736;28;20040;-63
2022/01/30 06:16:35;;;;;;;27.63;7.03;;;;;;;;;;5115792;28;20039;-64
2022/01/30 06:19:02;;;;;;;34.05;7.18;;;;;;;;;;5115327;28;20047;-64
2022/01/30 06:21:28;;;;;;;38.10;6.65;;;;;;;;;;5115630;28;20397;-65
2022/01/30 06:23:55;;;;;;;29.27;6.85;;;;;;;;;;5097259;28;20039;-65
2022/01/30 06:26:21;;;;;;;35.72;6.90;;;;;;;;;;5097369;28;20126;-65
2022/01/30 06:28:47;;;;;;;34.78;7.43;;;;;;;;;;5115859;28;20124;-64
2022/01/30 06:31:15;;;;;;;22.80;5.88;;;;;;;;;;5115230;28;20054;-63
2022/01/30 06:33:41;;;;;;;28.63;7.43;;;;;;;;;;5115194;28;20039;-64
2022/01/30 06:36:07;;;;;;;30.80;7.00;;;;;;;;;;5114948;28;20468;-65
2022/01/30 06:38:33;;;;;;;33.25;6.43;;;;;;;;;;5096903;28;20036;-63
2022/01/30 06:40:59;;;;;;;30.77;6.22;;;;;;;;;;5098986;28;20043;-64
2022/01/30 06:43:25;;;;;;;36.72;6.90;;;;;;;;;;5108525;28;20289;-64
2022/01/30 06:45:52;;;;;;;30.33;6.55;;;;;;;;;;5115093;28;20044;-63
2022/01/30 06:48:18;;;;;;;36.35;7.80;;;;;;;;;;5096747;28;20101;-63
2022/01/30 06:50:44;;;;;;;33.63;6.90;;;;;;;;;;5114817;28;20097;-64
2022/01/30 06:53:10;;;;;;;34.25;7.47;;;;;;;;;;5114693;28;20051;-64
2022/01/30 06:55:42;;;;;;;32.83;7.65;;;;;;;;;;5114352;28;20043;-64
2022/01/30 06:58:14;;;;;;;24.67;6.93;;;;;;;;;;5089523;28;20469;-63
2022/01/30 07:00:41;;;;;;;33.58;6.50;;;;;;;;;;5098279;28;20066;-65
2022/01/30 07:03:07;;;;;;;33.17;7.28;;;;;;;;;;5090247;28;20047;-65
2022/01/30 07:05:33;;;;;;;25.73;6.10;;;;;;;;;;5074297;28;20040;-65
2022/01/30 07:08:00;;;;;;;32.63;6.85;;;;;;;;;;5073932;28;20047;-65
2022/01/30 07:10:26;;;;;;;31.88;7.35;;;;;;;;;;5074123;28;20045;-65
2022/01/30 07:12:52;;;;;;;38.55;7.13;;;;;;;;;;5073261;28;20036;-65
2022/01/30 07:15:18;;;;;;;31.20;7.70;;;;;;;;;;5073650;28;20307;-65
2022/01/30 07:17:44;;;;;;;30.90;7.18;;;;;;;;;;5073449;28;20036;-65
2022/01/30 07:20:11;;;;;;;34.38;7.22;;;;;;;;;;5073374;28;20401;-65
2022/01/30 07:22:37;;;;;;;35.92;7.55;;;;;;;;;;5054747;28;20054;-65
2022/01/30 07:25:06;;;;;;;33.72;6.63;;;;;;;;;;5073172;28;20072;-65
2022/01/30 07:27:32;;;;;;;26.00;6.35;;;;;;;;;;5055412;28;20080;-65
2022/01/30 07:29:58;;;;;;;32.42;6.85;;;;;;;;;;5073172;28;20503;-66
2022/01/30 07:32:24;;;;;;;34.78;6.53;;;;;;;;;;5054818;28;20393;-67
2022/01/30 07:34:51;;;;;;;29.58;6.88;;;;;;;;;;5073573;28;20116;-66
2022/01/30 07:37:18;;;;;;;24.73;7.13;;;;;;;;;;5072684;28;20097;-66
2022/01/30 07:39:44;;;;;;;41.53;7.45;;;;;;;;;;5072540;28;20045;-62
2022/01/30 07:42:10;;;;;;;29.42;6.60;;;;;;;;;;5055217;28;20058;-64
2022/01/30 07:44:36;;;;;;;32.75;7.03;;;;;;;;;;5073446;28;20485;-64
2022/01/30 07:47:03;;;;;;;35.63;7.15;;;;;;;;;;5073047;28;20388;-65
2022/01/30 07:49:30;;;;;;;26.30;6.72;;;;;;;;;;5072946;28;20512;-66
2022/01/30 07:51:57;;;;;;;30.65;6.38;;;;;;;;;;5072267;28;20505;-66
2022/01/30 07:54:23;;;;;;;34.08;7.10;;;;;;;;;;5077009;28;20039;-65
2022/01/30 07:56:50;;;;;;;30.50;7.00;;;;;;;;;;5089350;28;20031;-67
2022/01/30 07:59:17;;;;;;;30.77;7.38;;;;;;;;;;5088149;28;20046;-65
2022/01/30 08:01:44;;;;;;;29.00;7.63;;;;;;;;;;5109044;28;20050;-66
2022/01/30 08:04:10;;;;;;;36.83;6.70;;;;;;;;;;5095133;28;20028;-65
2022/01/30 08:06:36;;;;;;;31.92;7.45;;;;;;;;;;5096549;28;20110;-64
2022/01/30 08:09:03;;;;;;;29.08;6.75;;;;;;;;;;5091654;22;20135;-65
2022/01/30 08:16:34;;;;;;;32.33;7.57;;;;;;;;;;5112099;28;20069;-65
2022/01/30 08:19:00;;;;;;;31.90;7.97;;;;;;;;;;5112833;28;20043;-65
2022/01/30 08:21:26;;;;;;;38.25;7.55;;;;;;;;;;5113235;28;20035;-64
2022/01/30 08:23:53;;;;;;;40.08;8.32;;;;;;;;;;5113148;28;20043;-64
2022/01/30 08:26:19;;;;;;;37.08;8.88;;;;;;;;;;5094474;28;20407;-64
2022/01/30 08:28:45;;;;;;;32.78;8.57;;;;;;;;;;5112903;28;20088;-65
2022/01/30 08:31:11;;;;;;;35.13;8.52;;;;;;;;;;5112622;28;20043;-64
2022/01/30 08:33:37;;;;;;;32.20;7.50;;;;;;;;;;5111873;28;20483;-64
2022/01/30 08:36:03;;;;;;;33.33;7.32;;;;;;;;;;5111935;28;20043;-64
2022/01/30 08:38:29;;;;;;;38.38;9.02;;;;;;;;;;5111755;28;20035;-64
2022/01/30 08:40:55;;;;;;;33.13;7.80;;;;;;;;;;5112063;28;20039;-64
2022/01/30 08:43:22;;;;;;;35.70;7.10;;;;;;;;;;5112902;28;20031;-64
2022/01/30 08:45:50;;;;;;;38.67;7.57;;;;;;;;;;5112647;28;20050;-64
2022/01/30 08:48:16;;;;;;;30.13;6.43;;;;;;;;;;5113504;28;20372;-64
2022/01/30 08:50:42;;;;;;;34.72;7.32;;;;;;;;;;5112533;28;20129;-64
2022/01/30 08:53:08;;;;;;;26.13;7.00;;;;;;;;;;5094477;28;20050;-64
2022/01/30 08:55:34;;;;;;;27.38;6.35;;;;;;;;;;5112532;28;20488;-65
2022/01/30 08:58:07;;;;;;;29.27;6.80;;;;;;;;;;5112429;28;20039;-65
2022/01/30 09:00:42;;;;;;;30.95;6.75;;;;;;;;;;5077889;28;20392;-64
2022/01/30 09:03:08;;;;;;;28.17;6.53;;;;;;;;;;5077330;28;20046;-65
2022/01/30 09:05:35;;;;;;;29.77;6.63;;;;;;;;;;5112994;28;20035;-64
2022/01/30 09:08:05;;;;;;;28.75;6.43;;;;;;;;;;5112578;28;20047;-64
2022/01/30 09:10:32;;;;;;;34.10;6.93;;;;;;;;;;5094426;28;20065;-65
2022/01/30 09:12:58;;;;;;;33.03;6.38;;;;;;;;;;5112349;28;20049;-65
2022/01/30 09:15:24;;;;;;;36.50;6.97;;;;;;;;;;5108468;28;20699;-65
2022/01/30 09:22:55;;;;;;;27.27;6.22;;;;;;;;;;5104090;28;20040;-67
2022/01/30 09:25:21;;;;;;;31.45;6.60;;;;;;;;;;5094208;28;20063;-66
2022/01/30 09:27:47;;;;;;;26.90;6.32;;;;;;;;;;5111262;28;20097;-65
2022/01/30 09:30:13;;;;;;;24.42;6.25;;;;;;;;;;5093594;28;20047;-65
2022/01/30 09:32:40;;;;;;;26.30;6.20;;;;;;;;;;5109526;28;20050;-66
2022/01/30 09:35:06;;;;;;;29.77;6.88;;;;;;;;;;5113837;28;20463;-66
2022/01/30 09:37:32;;;;;;;33.58;7.40;;;;;;;;;;5087859;28;20040;-63
2022/01/30 09:39:59;;;;;;;27.02;5.80;;;;;;;;;;5112886;28;20070;-64
2022/01/30 09:42:25;;;;;;;28.35;6.68;;;;;;;;;;5096483;28;20104;-65
2022/01/30 09:44:51;;;;;;;37.58;7.47;;;;;;;;;;5111412;28;20119;-65
2022/01/30 09:47:18;;;;;;;30.63;6.85;;;;;;;;;;5112691;28;20072;-64
2022/01/30 09:49:46;;;;;;;26.30;6.72;;;;;;;;;;5111145;28;20355;-65
2022/01/30 09:52:12;;;;;;;31.90;7.30;;;;;;;;;;5110297;28;20035;-65
2022/01/30 09:54:38;;;;;;;28.80;6.75;;;;;;;;;;5108622;28;20131;-65
2022/01/30 09:57:04;;;;;;;27.75;6.47;;;;;;;;;;5109225;28;20046;-66
2022/01/30 09:59:31;;;;;;;29.52;6.68;;;;;;;;;;5093967;28;20484;-66
2022/01/30 10:01:57;;;;;;;29.10;7.72;;;;;;;;;;5095076;28;20388;-66
2022/01/30 10:04:23;;;;;;;32.83;7.85;;;;;;;;;;5100114;28;20046;-64
2022/01/30 10:06:59;;;;;;;31.65;6.85;;;;;;;;;;5115664;28;20096;-64
2022/01/30 10:09:33;;;;;;;28.15;6.93;;;;;;;;;;5115166;28;20112;-63
2022/01/30 10:12:14;;;;;;;27.70;7.22;;;;;;;;;;5096921;28;20044;-65
2022/01/30 10:14:59;;;;;;;27.48;6.45;;;;;;;;;;5115413;28;20126;-65
2022/01/30 10:17:26;;;;;;;27.23;7.28;;;;;;;;;;5097227;28;20047;-64
2022/01/30 10:20:06;;;;;;;30.40;7.60;;;;;;;;;;5114927;28;20035;-63
2022/01/30 10:22:33;;;;;;;25.50;5.68;;;;;;;;;;5114893;28;20039;-65
2022/01/30 10:24:59;;;;;;;33.25;7.68;;;;;;;;;;5095436;28;20051;-65
2022/01/30 10:27:26;;;;;;;26.75;6.45;;;;;;;;;;5115448;28;20403;-65
2022/01/30 10:30:06;;;;;;;27.48;7.13;;;;;;;;;;5115601;28;20085;-65
2022/01/30 10:32:32;;;;;;;24.40;6.68;;;;;;;;;;5116050;28;20039;-65
2022/01/30 10:35:06;;;;;;;22.90;6.57;;;;;;;;;;5115913;28;20115;-66
2022/01/30 10:37:32;;;;;;;24.85;6.05;;;;;;;;;;5115350;28;20447;-65
2022/01/30 10:40:04;;;;;;;23.05;6.82;;;;;;;;;;5115601;28;20063;-67
2022/01/30 10:42:39;;;;;;;24.95;6.50;;;;;;;;;;5114650;28;20039;-66
2022/01/30 10:45:15;;;;;;;26.10;6.28;;;;;;;;;;5110081;28;20119;-67
2022/01/30 10:47:42;;;;;;;23.23;6.53;;;;;;;;;;5115034;28;20051;-67
2022/01/30 10:50:14;;;;;;;28.23;7.20;;;;;;;;;;5115154;28;20035;-67
2022/01/30 10:52:59;;;;;;;24.90;6.85;;;;;;;;;;5097008;28;20408;-64
2022/01/30 10:55:54;;;;;;;32.33;7.10;;;;;;;;;;5116049;28;20079;-64
2022/01/30 10:58:21;;;;;;;23.98;6.82;;;;;;;;;;5081861;28;20230;-67
2022/01/30 11:00:59;;;;;;;22.92;6.22;;;;;;;;;;5111861;28;20057;-65
2022/01/30 11:03:34;;;;;;;25.10;6.25;;;;;;;;;;5114712;28;20071;-66
2022/01/30 11:06:01;;;;;;;21.95;6.35;;;;;;;;;;5096736;28;20042;-65
2022/01/30 11:08:33;;;;;;;31.73;7.68;;;;;;;;;;5115010;28;20044;-66
2022/01/30 11:11:01;;;;;;;25.23;6.72;;;;;;;;;;5115275;28;20388;-64
2022/01/30 11:13:32;;;;;;;27.40;6.80;;;;;;;;;;5115397;28;20044;-65
2022/01/30 11:16:56;;;;;;;28.58;7.10;;;;;;;;;;5115467;28;20380;-65
2022/01/30 11:18:49;;;;;;;25.10;6.75;;;;;;;;;;5096635;28;20048;-64
2022/01/30 11:21:18;;;;;;;25.70;7.13;;;;;;;;;;5114299;28;20039;-65
2022/01/30 11:23:44;;;;;;;25.17;6.90;;;;;;;;;;5114827;28;20430;-65
2022/01/30 11:26:11;;;;;;;29.17;6.88;;;;;;;;;;5115144;28;20099;-64
2022/01/30 11:28:38;;;;;;;30.40;7.47;;;;;;;;;;5114485;28;20039;-63
2022/01/30 11:31:04;;;;;;;30.90;7.30;;;;;;;;;;5115102;28;20180;-64
2022/01/30 11:33:32;;;;;;;31.73;7.88;;;;;;;;;;5115165;28;20035;-64
2022/01/30 11:35:58;;;;;;;30.40;7.43;;;;;;;;;;5115373;28;20483;-64
2022/01/30 11:38:24;;;;;;;22.13;6.18;;;;;;;;;;5108911;28;20123;-65
2022/01/30 11:41:09;;;;;;;28.92;7.72;;;;;;;;;;5111775;28;20031;-65
2022/01/30 11:43:35;;;;;;;26.38;6.82;;;;;;;;;;5114263;28;20036;-65
2022/01/30 11:46:17;;;;;;;25.65;6.93;;;;;;;;;;5113892;28;20118;-64
2022/01/30 11:48:43;;;;;;;25.90;6.38;;;;;;;;;;5114637;28;20162;-64
2022/01/30 11:51:10;;;;;;;26.40;6.45;;;;;;;;;;5114541;28;20043;-64
2022/01/30 11:53:39;;;;;;;28.75;6.13;;;;;;;;;;5113607;28;20039;-68
2022/01/30 11:56:06;;;;;;;26.25;7.00;;;;;;;;;;5107330;28;20589;-65
2022/01/30 11:58:32;;;;;;;19.92;5.18;;;;;;;;;;5111029;28;20404;-65
2022/01/30 12:01:02;;;;;;;22.52;5.85;;;;;;;;;;5111414;28;20047;-66
2022/01/30 12:03:29;;;;;;;29.05;6.03;;;;;;;;;;5096010;28;20048;-65
2022/01/30 12:05:58;;;;;;;21.20;6.55;;;;;;;;;;5114110;28;20526;-65
2022/01/30 12:08:46;;;;;;;22.33;6.47;;;;;;;;;;5114226;28;20510;-65
2022/01/30 12:11:31;;;;;;;22.83;6.28;;;;;;;;;;5113850;28;20047;-64
2022/01/30 12:13:57;;;;;;;20.27;6.68;;;;;;;;;;5103129;28;20123;-66
2022/01/30 12:16:42;;;;;;;19.90;5.75;;;;;;;;;;5078575;28;20051;-64
2022/01/30 12:21:36;;;;;;;20.00;5.85;;;;;;;;;;5111721;28;20526;-65
2022/01/30 12:24:21;;;;;;;27.80;6.75;;;;;;;;;;5091649;28;20036;-64
2022/01/30 12:26:51;;;;;;;16.42;4.82;;;;;;;;;;5083629;28;20040;-65
2022/01/30 12:29:36;;;;;;;21.95;5.53;;;;;;;;;;5072585;28;20044;-66
2022/01/30 12:32:20;;;;;;;22.65;5.70;;;;;;;;;;5077510;28;20032;-65
2022/01/30 12:34:47;;;;;;;21.42;5.47;;;;;;;;;;5082416;28;20043;-65
2022/01/30 12:37:26;;;;;;;17.02;4.57;;;;;;;;;;5079256;28;20045;-67
2022/01/30 12:39:53;;;;;;;17.73;5.82;;;;;;;;;;5063003;28;20041;-65
2022/01/30 12:42:20;;;;;;;22.02;5.05;;;;;;;;;;5079657;28;20035;-66
2022/01/30 12:44:46;;;;;;;21.33;4.88;;;;;;;;;;5083388;28;20037;-65
2022/01/30 12:47:13;;;;;;;17.02;5.28;;;;;;;;;;5075748;28;20520;-66
2022/01/30 12:49:51;;;;;;;22.17;5.38;;;;;;;;;;5083421;28;20119;-65
2022/01/30 12:52:31;;;;;;;22.15;5.15;;;;;;;;;;5084477;28;20113;-66
2022/01/30 12:55:00;;;;;;;18.75;5.60;;;;;;;;;;5089318;28;20050;-66
2022/01/30 12:57:27;;;;;;;19.20;5.75;;;;;;;;;;5083264;28;20028;-66
2022/01/30 12:59:54;;;;;;;17.85;5.80;;;;;;;;;;5080872;28;20041;-66
2022/01/30 13:02:20;;;;;;;22.17;5.18;;;;;;;;;;5085357;28;20521;-67
2022/01/30 13:04:46;;;;;;;19.27;5.20;;;;;;;;;;5078568;28;20389;-66
2022/01/30 13:07:13;;;;;;;19.95;5.15;;;;;;;;;;5075968;28;20037;-66
2022/01/30 13:09:39;;;;;;;18.35;5.47;;;;;;;;;;5080794;28;20048;-66
2022/01/30 13:12:15;;;;;;;22.70;5.30;;;;;;;;;;5080961;28;20047;-66
2022/01/30 13:14:42;;;;;;;19.88;5.13;;;;;;;;;;5080464;28;20382;-66
2022/01/30 13:17:10;;;;;;;17.73;4.60;;;;;;;;;;5080315;28;20507;-67
2022/01/30 13:19:38;;;;;;;19.23;4.80;;;;;;;;;;5081280;28;20036;-64
2022/01/30 13:22:08;;;;;;;18.38;4.93;;;;;;;;;;5086127;28;20117;-64
2022/01/30 13:24:34;;;;;;;21.30;5.55;;;;;;;;;;5079002;28;20036;-66
2022/01/30 13:27:07;;;;;;;18.25;5.22;;;;;;;;;;5084864;28;20039;-65
2022/01/30 13:29:35;;;;;;;19.92;5.35;;;;;;;;;;5080330;28;20044;-66
2022/01/30 13:32:06;;;;;;;19.50;5.15;;;;;;;;;;5088679;28;20039;-66
2022/01/30 13:34:33;;;;;;;21.83;6.05;;;;;;;;;;5086681;28;20045;-66
2022/01/30 13:37:01;;;;;;;17.42;5.22;;;;;;;;;;5081766;28;20624;-67
2022/01/30 13:39:34;;;;;;;18.17;6.30;;;;;;;;;;5080193;28;20119;-68
2022/01/30 13:42:54;;;;;;;21.85;5.93;;;;;;;;;;5086878;28;20048;-66
2022/01/30 13:47:52;;;;;;;18.55;5.22;;;;;;;;;;5077757;28;20082;-68
2022/01/30 13:50:19;;;;;;;21.13;5.53;;;;;;;;;;5084131;28;20051;-65
2022/01/30 13:52:45;;;;;;;18.30;5.40;;;;;;;;;;5084286;28;20523;-66
2022/01/30 13:55:12;;;;;;;18.73;4.93;;;;;;;;;;5081865;28;20457;-66
2022/01/30 13:57:39;;;;;;;21.15;5.50;;;;;;;;;;5082064;28;20048;-67
2022/01/30 14:00:18;;;;;;;22.00;5.43;;;;;;;;;;5082309;28;20033;-64
2022/01/30 14:02:54;;;;;;;14.23;4.88;;;;;;;;;;5063240;28;20028;-64
2022/01/30 14:05:24;;;;;;;16.45;4.93;;;;;;;;;;5076530;28;20043;-65
2022/01/30 14:07:51;;;;;;;17.90;4.78;;;;;;;;;;5074569;28;20083;-65
2022/01/30 14:10:18;;;;;;;17.65;5.25;;;;;;;;;;5087414;28;20043;-65
2022/01/30 14:12:44;;;;;;;22.02;5.88;;;;;;;;;;5091551;28;20040;-65
2022/01/30 14:15:12;;;;;;;18.73;4.78;;;;;;;;;;5091080;28;20040;-65
2022/01/30 14:17:42;;;;;;;18.77;5.25;;;;;;;;;;5092196;28;20097;-65
2022/01/30 14:20:11;;;;;;;22.65;6.75;;;;;;;;;;5094540;28;20530;-65
2022/01/30 14:22:37;;;;;;;17.90;5.22;;;;;;;;;;5093925;28;20032;-65
2022/01/30 14:25:08;;;;;;;18.30;5.38;;;;;;;;;;5094706;28;20044;-65
2022/01/30 14:27:35;;;;;;;17.73;5.70;;;;;;;;;;5077267;28;20131;-66
2022/01/30 14:30:04;;;;;;;16.80;4.93;;;;;;;;;;5095420;28;20385;-66
2022/01/30 14:32:34;;;;;;;20.15;6.47;;;;;;;;;;5094879;28;20076;-66
2022/01/30 14:35:01;;;;;;;19.77;5.43;;;;;;;;;;5095239;28;20044;-66
2022/01/30 14:37:27;;;;;;;21.48;5.25;;;;;;;;;;5094889;28;20576;-66
2022/01/30 14:39:54;;;;;;;20.90;5.95;;;;;;;;;;5094910;28;20032;-66
2022/01/30 14:42:20;;;;;;;16.95;5.35;;;;;;;;;;5094175;28;20040;-67
2022/01/30 14:44:47;;;;;;;18.50;5.45;;;;;;;;;;5094900;28;20054;-65
2022/01/30 14:47:13;;;;;;;25.95;5.93;;;;;;;;;;5094674;28;20036;-67
2022/01/30 14:49:39;;;;;;;26.50;6.10;;;;;;;;;;5091239;28;20416;-70
2022/01/30 14:52:06;;;;;;;21.25;5.85;;;;;;;;;;5083188;28;20032;-64
2022/01/30 14:54:33;;;;;;;21.58;5.72;;;;;;;;;;5075145;28;20109;-64
2022/01/30 14:57:01;;;;;;;24.20;6.50;;;;;;;;;;5074784;28;20059;-68
2022/01/30 14:59:27;;;;;;;23.40;5.68;;;;;;;;;;5074649;28;20116;-66
2022/01/30 15:01:53;;;;;;;22.90;5.97;;;;;;;;;;5074473;28;20036;-64
2022/01/30 15:04:20;;;;;;;26.05;5.80;;;;;;;;;;5074363;28;20036;-68
2022/01/30 15:06:46;;;;;;;22.40;5.70;;;;;;;;;;5074882;28;20066;-63
2022/01/30 15:09:12;;;;;;;22.10;5.45;;;;;;;;;;5074382;28;20048;-63
2022/01/30 15:11:38;;;;;;;24.77;5.85;;;;;;;;;;5056028;28;20489;-63
2022/01/30 15:14:05;;;;;;;23.35;6.07;;;;;;;;;;5072279;28;20036;-63
2022/01/30 15:16:49;;;;;;;29.50;7.20;;;;;;;;;;5071836;28;20394;-63
2022/01/30 15:19:16;;;;;;;23.23;5.97;;;;;;;;;;5071377;28;20048;-63
2022/01/30 15:21:43;;;;;;;23.23;5.78;;;;;;;;;;5071658;28;20538;-63
2022/01/30 15:24:10;;;;;;;28.23;6.80;;;;;;;;;;5070599;28;20040;-62
2022/01/30 15:26:36;;;;;;;28.50;6.57;;;;;;;;;;5071664;28;20083;-63
2022/01/30 15:29:03;;;;;;;26.98;5.72;;;;;;;;;;5073417;28;20454;-64
2022/01/30 15:31:30;;;;;;;31.50;6.70;;;;;;;;;;5073919;28;20127;-63
2022/01/30 15:33:57;;;;;;;31.80;6.80;;;;;;;;;;5073506;28;20174;-65
2022/01/30 15:36:23;;;;;;;26.67;6.25;;;;;;;;;;5073396;28;20059;-63
2022/01/30 15:38:50;;;;;;;17.67;5.57;;;;;;;;;;5073644;28;20489;-64
2022/01/30 15:41:17;;;;;;;20.17;5.32;;;;;;;;;;5073327;28;20516;-64
2022/01/30 15:43:43;;;;;;;27.20;6.10;;;;;;;;;;5073280;28;20036;-63
2022/01/30 15:49:02;;;;;;;18.65;5.65;;;;;;;;;;5073332;28;20075;-65
2022/01/30 15:51:28;;;;;;;24.02;6.00;;;;;;;;;;5073468;28;20524;-64
2022/01/30 15:53:56;;;;;;;25.85;5.57;;;;;;;;;;5073221;28;20127;-63
2022/01/30 15:56:22;;;;;;;22.63;5.85;;;;;;;;;;5073162;28;20045;-65
2022/01/30 15:58:48;;;;;;;28.33;5.63;;;;;;;;;;5073469;28;20083;-65
2022/01/30 16:01:14;;;;;;;24.58;5.53;;;;;;;;;;5073641;28;20036;-65
2022/01/30 16:03:41;;;;;;;23.73;5.50;;;;;;;;;;5073407;28;20063;-63
2022/01/30 16:06:07;;;;;;;23.95;5.72;;;;;;;;;;5073528;28;20043;-64
2022/01/30 16:08:39;;;;;;;26.63;5.70;;;;;;;;;;5073446;28;20048;-64